CheckWX is a tool to help pilots better visualize weather data.  It is not intended as a substitute for an official pre-flight weather briefing.

04:44:12 UTC

KTZR METAR
Bolton Field Airport
Columbus, Ohio, USA
Current

9 mins ago

KTZR 230435Z AUTO 31009KT 10SM CLR 01/M02 A3015 RMK AO2 T00111022
Observed
Mar-23 @ 04:35 UTC
Wind
  • 310° at 9 KTS
Visibility
10 SM
Flight Rules
VFR
Cloud Levels
  • Clear skies
Temperature
C / 34°F
Dewpoint
-2°C / 28°F
Humidity
81%
Altimeter
30.15" Hg
Pressure
1021.02 hPa
Previous

29 mins ago

KTZR 230415Z AUTO 30007KT 10SM CLR 02/M02 A3014 RMK AO2 T00151021
Observed
Mar-23 @ 04:15 UTC
Wind
  • 300° at 7 KTS
Visibility
10 SM
Flight Rules
VFR
Cloud Levels
  • Clear skies
Temperature
C / 36°F
Dewpoint
-2°C / 28°F
Humidity
75%
Altimeter
30.14" Hg
Pressure
1020.62 hPa
Previous

49 mins ago

KTZR 230355Z AUTO 30007KT 10SM CLR 02/M03 A3013 RMK AO2 T00181028
Observed
Mar-23 @ 03:55 UTC
Wind
  • 300° at 7 KTS
Visibility
10 SM
Flight Rules
VFR
Cloud Levels
  • Clear skies
Temperature
C / 36°F
Dewpoint
-3°C / 27°F
Humidity
70%
Altimeter
30.13" Hg
Pressure
1020.32 hPa